Time;durP1;ratioP1;P1;durP2;ratioP2;P2;SDS_P1;SDS_P2;PMS_P1;PMS_P2;Temp;Humidity;BMP_temperature;BMP_pressure;BME280_temperature;BME280_humidity;BME280_pressure;Samples;Min_cycle;Max_cycle;Signal;HPM_P1;HPM_P2
2022/04/05 00:02:30;;;;;;;9.82;8.45;;;;;;;4.60;70.52;98965.72;10287448;28;20162;-74
2022/04/05 00:08:03;;;;;;;10.18;8.35;;;;;;;4.60;71.08;98952.78;10304816;28;20058;-74
2022/04/05 00:13:05;;;;;;;9.35;8.27;;;;;;;4.59;70.80;98954.56;10288348;28;20089;-74
2022/04/05 00:18:07;;;;;;;9.75;8.75;;;;;;;4.68;70.47;98943.69;10287764;28;20058;-75
2022/04/05 00:23:09;;;;;;;9.95;8.93;;;;;;;4.66;70.88;98942.09;10304250;28;20093;-74
2022/04/05 00:28:11;;;;;;;11.63;8.65;;;;;;;4.53;71.75;98951.44;10304157;28;20496;-75
2022/04/05 00:33:13;;;;;;;9.38;8.18;;;;;;;4.63;71.42;98950.88;10303810;28;20050;-74
2022/04/05 00:38:15;;;;;;;10.32;9.23;;;;;;;4.75;71.12;98957.19;10304446;28;20102;-75
2022/04/05 00:43:17;;;;;;;9.88;8.73;;;;;;;4.81;70.78;98938.72;10304280;28;20435;-74
2022/04/05 00:48:37;;;;;;;9.75;7.47;;;;;;;4.84;70.55;98937.75;10303888;28;20058;-74
2022/04/05 00:53:41;;;;;;;8.35;7.47;;;;;;;4.92;70.23;98927.81;10304801;28;20054;-74
2022/04/05 00:58:47;;;;;;;8.88;7.97;;;;;;;4.95;70.34;98932.81;10303742;28;20046;-74
2022/04/05 01:03:50;;;;;;;8.02;7.22;;;;;;;4.99;70.06;98931.75;10301358;28;20147;-74
2022/04/05 01:08:53;;;;;;;8.30;7.00;;;;;;;4.97;70.04;98929.22;10302279;28;20077;-74
2022/04/05 01:13:55;;;;;;;7.32;6.60;;;;;;;5.11;69.56;98936.25;10301155;28;20668;-74
2022/04/05 01:19:14;;;;;;;8.82;6.90;;;;;;;5.20;69.46;98918.50;10304388;28;20054;-74
2022/04/05 01:24:16;;;;;;;8.38;7.00;;;;;;;5.13;69.74;98929.25;10285632;28;20167;-74
2022/04/05 01:29:20;;;;;;;11.52;9.13;;;;;;;5.20;69.65;98923.69;10285532;28;20563;-74
2022/04/05 01:34:24;;;;;;;11.10;8.30;;;;;;;5.30;69.14;98927.44;10302448;28;20062;-74
2022/04/05 01:39:30;;;;;;;7.13;6.40;;;;;;;5.41;68.63;98917.31;10301926;28;20069;-74
2022/04/05 01:44:33;;;;;;;7.18;6.47;;;;;;;5.41;68.79;98916.50;10284775;28;20585;-75
2022/04/05 01:49:36;;;;;;;9.02;6.18;;;;;;;5.36;69.23;98911.56;10301621;28;20149;-75
2022/04/05 01:54:39;;;;;;;7.38;6.40;;;;;;;5.43;69.07;98912.88;10285669;28;20081;-74
2022/04/05 01:59:41;;;;;;;6.63;5.80;;;;;;;5.38;69.25;98906.28;10301751;28;20128;-74
2022/04/05 02:04:43;;;;;;;7.00;6.07;;;;;;;5.48;68.87;98907.44;10305878;28;20062;-74
2022/04/05 02:09:48;;;;;;;8.20;6.28;;;;;;;5.44;69.06;98898.16;10308397;28;20164;-74
2022/04/05 02:14:50;;;;;;;7.45;6.05;;;;;;;5.55;68.79;98895.81;10309341;28;20500;-74
2022/04/05 02:19:54;;;;;;;6.70;6.00;;;;;;;5.51;68.92;98900.31;10310066;28;20105;-74
2022/04/05 02:24:57;;;;;;;7.65;6.55;;;;;;;5.57;68.82;98899.97;10294763;28;20054;-74
2022/04/05 02:29:59;;;;;;;7.35;6.55;;;;;;;5.58;68.94;98900.81;10318043;28;20050;-74
2022/04/05 02:35:01;;;;;;;7.20;6.22;;;;;;;5.47;69.59;98903.19;10316578;28;20538;-75
2022/04/05 02:40:03;;;;;;;8.15;7.07;;;;;;;5.46;70.08;98904.09;10317470;28;20094;-74
2022/04/05 02:45:06;;;;;;;8.27;7.07;;;;;;;5.44;70.28;98908.53;10317190;28;20105;-74
2022/04/05 02:50:08;;;;;;;8.70;7.80;;;;;;;5.40;70.54;98899.25;10298764;28;20741;-75
2022/04/05 02:55:10;;;;;;;9.52;7.75;;;;;;;5.42;70.40;98905.19;10316824;28;20066;-74
2022/04/05 03:00:15;;;;;;;9.30;8.30;;;;;;;5.48;70.30;98904.84;10315600;28;20548;-75
2022/04/05 03:05:21;;;;;;;8.95;7.97;;;;;;;5.36;71.07;98908.13;10312631;28;20155;-74
2022/04/05 03:10:23;;;;;;;8.82;7.93;;;;;;;5.27;71.75;98900.81;10310207;28;20066;-74
2022/04/05 03:15:24;;;;;;;9.95;8.00;;;;;;;5.23;72.12;98897.56;10292736;28;20165;-74
2022/04/05 03:20:26;;;;;;;10.13;8.88;;;;;;;5.34;71.59;98892.66;10292322;28;20509;-74
2022/04/05 03:25:28;;;;;;;10.88;8.18;;;;;;;5.29;71.67;98894.66;10309146;28;20094;-74
2022/04/05 03:30:31;;;;;;;8.32;7.28;;;;;;;5.11;72.64;98889.63;10307462;28;20046;-75
2022/04/05 03:35:33;;;;;;;9.18;8.20;;;;;;;5.25;71.97;98887.97;10309260;28;20060;-75
2022/04/05 03:40:35;;;;;;;8.95;7.30;;;;;;;5.35;71.51;98890.91;10308415;28;20090;-74
2022/04/05 03:45:37;;;;;;;7.93;7.03;;;;;;;5.27;72.14;98891.31;10308639;28;20062;-74
2022/04/05 03:50:39;;;;;;;7.75;6.70;;;;;;;5.40;71.38;98888.88;10307135;28;20090;-75
2022/04/05 03:55:42;;;;;;;7.88;6.82;;;;;;;5.44;71.10;98896.41;10306324;28;20101;-75
2022/04/05 04:00:44;;;;;;;7.55;6.68;;;;;;;5.54;70.87;98894.13;10308018;28;20468;-74
2022/04/05 04:05:46;;;;;;;9.23;7.30;;;;;;;5.49;71.20;98896.16;10307616;28;20141;-74
2022/04/05 04:10:48;;;;;;;8.25;6.80;;;;;;;5.53;71.12;98898.47;10307794;28;20046;-74
2022/04/05 04:15:50;;;;;;;7.80;6.15;;;;;;;5.43;71.66;98888.72;10307196;28;20575;-75
2022/04/05 04:20:53;;;;;;;8.35;6.38;;;;;;;5.49;71.48;98896.16;10305974;28;20049;-74
2022/04/05 04:25:54;;;;;;;8.75;7.63;;;;;;;5.40;71.88;98897.50;10306786;28;20684;-74
2022/04/05 04:30:56;;;;;;;7.95;6.95;;;;;;;5.29;72.51;98899.81;10306890;28;20677;-74
2022/04/05 04:35:58;;;;;;;8.25;7.43;;;;;;;5.40;72.07;98892.31;10305085;28;20492;-75
2022/04/05 04:41:00;;;;;;;9.90;7.60;;;;;;;5.39;72.03;98889.81;10306447;28;20081;-75
2022/04/05 04:46:02;;;;;;;9.65;6.90;;;;;;;5.34;72.33;98897.00;10306654;28;20058;-75
2022/04/05 04:51:03;;;;;;;8.68;7.43;;;;;;;5.39;72.11;98910.56;10305355;28;20559;-75
2022/04/05 04:56:05;;;;;;;7.75;6.95;;;;;;;5.41;72.17;98912.13;10304834;28;20086;-74
2022/04/05 05:01:10;;;;;;;7.88;6.90;;;;;;;5.57;71.48;98914.72;10288361;28;20057;-75
2022/04/05 05:06:12;;;;;;;7.55;6.57;;;;;;;5.44;71.91;98911.97;10289932;28;20069;-74
2022/04/05 05:11:14;;;;;;;9.48;7.43;;;;;;;5.55;71.62;98921.75;10288292;28;20265;-75
2022/04/05 05:16:16;;;;;;;8.30;6.82;;;;;;;5.50;71.74;98916.81;10305012;28;20164;-75
2022/04/05 05:21:19;;;;;;;8.02;6.88;;;;;;;5.55;71.58;98922.56;10305941;28;20054;-74
2022/04/05 05:26:21;;;;;;;8.35;7.20;;;;;;;5.59;71.47;98923.25;10288002;28;20420;-74
2022/04/05 05:31:22;;;;;;;8.40;7.32;;;;;;;5.69;71.22;98929.59;10286342;28;20144;-74
2022/04/05 05:36:24;;;;;;;7.60;6.80;;;;;;;5.83;70.74;98934.84;10304513;28;20089;-75
2022/04/05 05:41:26;;;;;;;9.02;7.25;;;;;;;5.85;70.59;98945.13;10301238;28;20050;-74
2022/04/05 05:46:28;;;;;;;7.60;6.80;;;;;;;5.84;70.83;98941.69;10304479;28;20145;-75
2022/04/05 05:51:30;;;;;;;8.27;7.28;;;;;;;5.86;70.76;98952.81;10304941;28;20050;-74
2022/04/05 05:56:32;;;;;;;8.68;6.55;;;;;;;5.93;70.62;98948.97;10301655;28;20077;-74
2022/04/05 06:01:33;;;;;;;7.63;6.53;;;;;;;5.97;70.48;98971.25;10290659;28;21045;-74
2022/04/05 06:06:35;;;;;;;9.05;6.95;;;;;;;6.01;70.22;98967.53;10311357;28;20054;-74
2022/04/05 06:11:37;;;;;;;7.80;7.00;;;;;;;6.12;70.31;98969.53;10293508;28;20559;-74
2022/04/05 06:16:39;;;;;;;8.50;7.47;;;;;;;6.12;70.28;98990.31;10310240;28;20062;-74
2022/04/05 06:21:41;;;;;;;8.15;6.78;;;;;;;6.23;70.06;98987.91;10309854;28;20156;-74
2022/04/05 06:26:42;;;;;;;7.38;6.30;;;;;;;6.32;69.61;98982.25;10308530;28;20054;-75
2022/04/05 06:31:44;;;;;;;7.75;6.70;;;;;;;6.34;69.89;98991.63;10309293;28;20089;-74
2022/04/05 06:36:46;;;;;;;8.60;6.30;;;;;;;6.31;70.21;98990.94;10309267;28;20054;-74
2022/04/05 06:41:48;;;;;;;7.63;6.30;;;;;;;6.52;69.69;99001.88;10309337;28;20098;-74
2022/04/05 06:46:50;;;;;;;6.93;5.97;;;;;;;6.50;69.75;98986.38;10310648;28;20054;-74
2022/04/05 06:51:52;;;;;;;8.55;6.20;;;;;;;6.43;69.92;98999.81;10310535;28;20105;-74
2022/04/05 06:56:53;;;;;;;7.88;6.68;;;;;;;6.69;69.09;98999.13;10310444;28;20054;-74
2022/04/05 07:01:55;;;;;;;7.90;6.20;;;;;;;6.66;69.39;99005.34;10309621;28;20126;-74
2022/04/05 07:06:57;;;;;;;8.48;6.50;;;;;;;6.52;69.83;99000.13;10308982;28;20137;-74
2022/04/05 07:11:59;;;;;;;8.50;6.75;;;;;;;6.71;69.37;99002.47;10290030;28;20488;-74
2022/04/05 07:17:01;;;;;;;7.53;6.22;;;;;;;6.82;69.00;98998.31;10309426;28;20129;-74
2022/04/05 07:22:03;;;;;;;8.18;6.45;;;;;;;6.95;68.91;98995.81;10309331;28;20070;-74
2022/04/05 07:27:05;;;;;;;7.05;6.13;;;;;;;7.36;67.99;98999.38;10308367;28;20108;-74
2022/04/05 07:32:07;;;;;;;6.45;5.53;;;;;;;7.48;67.56;98989.97;10309307;28;20050;-74
2022/04/05 07:37:11;;;;;;;7.57;5.80;;;;;;;7.65;67.25;98997.56;10308743;28;20141;-74
2022/04/05 07:42:13;;;;;;;6.63;5.60;;;;;;;7.76;66.88;98998.56;10291700;28;20050;-74
2022/04/05 07:47:15;;;;;;;6.20;5.00;;;;;;;7.64;66.87;99001.09;10291032;28;20050;-74
2022/04/05 07:52:17;;;;;;;6.28;5.28;;;;;;;7.62;67.02;99006.38;10308028;28;20794;-74
2022/04/05 07:57:18;;;;;;;6.10;5.30;;;;;;;7.58;67.15;99009.28;10307629;28;20148;-74
2022/04/05 08:02:20;;;;;;;7.18;5.82;;;;;;;7.41;67.90;98997.31;10307074;28;20098;-74
2022/04/05 08:07:36;;;;;;;6.15;5.45;;;;;;;7.51;68.36;99003.59;10300874;28;20061;-74
2022/04/05 08:12:43;;;;;;;6.75;5.60;;;;;;;7.78;67.23;98985.44;10301315;28;20078;-74
2022/04/05 08:17:46;;;;;;;5.63;4.95;;;;;;;7.92;67.26;98999.25;10305764;28;20136;-75
2022/04/05 08:22:48;;;;;;;7.22;5.22;;;;;;;8.00;67.38;98999.59;10298967;28;20061;-74
2022/04/05 08:27:50;;;;;;;5.95;5.03;;;;;;;8.25;66.80;98992.84;10305662;28;20177;-74
2022/04/05 08:32:52;;;;;;;6.25;5.20;;;;;;;8.20;66.71;99005.34;10303961;28;20109;-74
2022/04/05 08:37:55;;;;;;;5.60;4.90;;;;;;;8.58;65.90;99006.25;10303795;28;20459;-74
2022/04/05 08:42:58;;;;;;;5.60;4.57;;;;;;;8.75;65.37;99003.38;10304631;28;20095;-76
2022/04/05 08:48:00;;;;;;;5.45;4.50;;;;;;;8.96;65.00;99014.97;10308293;28;20484;-76
2022/04/05 08:53:03;;;;;;;5.68;4.60;;;;;;;8.88;65.30;99014.63;10303755;28;20116;-76
2022/04/05 08:58:09;;;;;;;5.75;5.03;;;;;;;8.78;65.68;99014.44;10304017;28;20055;-76
2022/04/05 09:03:10;;;;;;;6.82;4.88;;;;;;;8.94;65.88;99014.22;10303594;28;20155;-76
2022/04/05 09:08:18;;;;;;;5.63;4.80;;;;;;;8.96;65.73;99011.50;10305034;28;20090;-76
2022/04/05 09:13:22;;;;;;;5.60;4.80;;;;;;;9.07;65.67;99011.63;10301262;28;20136;-75
2022/04/05 09:18:31;;;;;;;6.43;4.38;;;;;;;9.43;64.52;99015.16;10304476;28;20046;-76
2022/04/05 09:23:41;;;;;;;6.60;4.50;;;;;;;9.42;64.69;99010.84;10288533;28;20540;-76
2022/04/05 09:28:44;;;;;;;5.57;4.40;;;;;;;9.67;64.25;99010.00;10302384;28;20051;-75
2022/04/05 09:34:12;;;;;;;5.80;4.35;;;;;;;9.63;64.19;99014.59;10304624;28;21045;-75
2022/04/05 09:39:17;;;;;;;4.85;4.07;;;;;;;9.72;64.58;99022.75;10310902;28;20412;-75
2022/04/05 09:44:28;;;;;;;5.72;4.70;;;;;;;9.77;64.81;99013.63;10311856;28;20049;-76
2022/04/05 09:49:30;;;;;;;;;;;;;;;9.73;64.50;99027.03;10310476;28;20058;-76
2022/04/05 09:54:34;;;;;;;4.70;3.80;;;;;;;10.13;63.44;99023.25;10317191;28;19925;-76
2022/04/05 09:59:42;;;;;;;7.10;4.05;;;;;;;10.62;62.35;99013.50;10304825;28;20050;-76
2022/04/05 10:05:05;;;;;;;5.05;3.45;;;;;;;10.48;62.09;99024.94;10309554;28;20054;-76
2022/04/05 10:10:07;;;;;;;4.82;3.50;;;;;;;10.86;61.80;99032.56;10310129;28;20057;-75
2022/04/05 10:15:21;;;;;;;4.25;3.28;;;;;;;10.82;61.25;99025.06;10307561;28;20132;-76
2022/04/05 10:20:25;;;;;;;4.82;3.50;;;;;;;11.12;61.54;99026.22;10307240;28;20135;-76
2022/04/05 10:25:29;;;;;;;4.50;3.38;;;;;;;11.10;60.89;99028.13;10306655;28;20059;-76
2022/04/05 10:30:40;;;;;;;4.53;3.17;;;;;;;11.44;60.73;99028.19;10307140;28;20113;-76
2022/04/05 10:35:52;;;;;;;4.05;3.35;;;;;;;11.74;59.06;99020.53;10311638;28;20508;-76
2022/04/05 10:41:14;;;;;;;4.30;3.13;;;;;;;11.58;58.73;99020.88;10308389;28;20078;-76
2022/04/05 10:46:40;;;;;;;4.18;2.78;;;;;;;11.84;58.03;99008.38;10308411;28;20991;-76
2022/04/05 10:52:08;;;;;;;4.97;2.60;;;;;;;12.10;57.39;99004.50;10302706;28;20058;-76
2022/04/05 10:57:17;;;;;;;3.70;2.38;;;;;;;12.48;56.65;98997.00;10305608;28;20104;-76
2022/04/05 11:02:33;;;;;;;4.95;2.40;;;;;;;12.34;56.60;99009.56;10307248;28;20054;-76
2022/04/05 11:07:54;;;;;;;2.95;2.13;;;;;;;12.34;56.84;99007.78;10304043;28;20062;-76
2022/04/05 11:13:31;;;;;;;3.90;2.33;;;;;;;12.88;55.45;99003.22;10302723;28;20061;-75
2022/04/05 11:18:34;;;;;;;5.10;2.10;;;;;;;13.29;54.52;98991.03;10300255;28;20133;-75
2022/04/05 11:23:48;;;;;;;3.05;1.80;;;;;;;13.26;53.64;99002.63;10303754;28;20476;-76
2022/04/05 11:28:50;;;;;;;2.53;1.80;;;;;;;13.18;54.85;98996.34;10302866;28;20337;-76
2022/04/05 11:33:53;;;;;;;3.05;1.80;;;;;;;12.81;55.15;99006.50;10307042;28;20969;-76
2022/04/05 11:38:58;;;;;;;2.65;1.65;;;;;;;13.10;54.51;98998.81;10306340;28;20198;-76
2022/04/05 11:44:07;;;;;;;2.20;1.60;;;;;;;13.39;53.30;98992.72;10309041;28;20068;-76
2022/04/05 11:49:11;;;;;;;2.33;1.58;;;;;;;13.12;54.19;98994.25;10305020;28;20476;-76
2022/04/05 11:54:17;;;;;;;2.70;1.50;;;;;;;13.47;53.06;98989.47;10306843;28;20054;-77
2022/04/05 11:59:27;;;;;;;2.28;1.60;;;;;;;13.31;53.03;98994.34;10304054;28;20090;-77
2022/04/05 12:04:32;;;;;;;2.50;1.70;;;;;;;12.76;53.69;99001.63;10306788;28;20054;-76
2022/04/05 12:09:36;;;;;;;3.65;2.03;;;;;;;12.66;54.39;99005.97;10304762;28;20089;-77
2022/04/05 12:14:38;;;;;;;2.67;1.80;;;;;;;12.12;55.47;99005.22;10305278;28;20058;-77
2022/04/05 12:19:42;;;;;;;4.60;2.00;;;;;;;11.80;56.49;99010.41;10315902;28;21144;-77
2022/04/05 12:24:57;;;;;;;3.10;2.10;;;;;;;11.44;57.90;99015.09;10302945;28;20486;-77
2022/04/05 12:30:02;;;;;;;5.47;2.10;;;;;;;11.24;58.31;99017.44;10305419;28;20389;-77
2022/04/05 12:35:07;;;;;;;3.97;2.20;;;;;;;11.60;57.83;99013.75;10303551;28;20050;-77
2022/04/05 12:46:40;;;;;;;3.77;2.10;;;;;;;11.34;59.20;99007.09;10301706;28;20046;-77
2022/04/05 12:51:43;;;;;;;3.05;2.05;;;;;;;11.62;58.48;99008.41;10300878;28;20050;-76
2022/04/05 12:56:44;;;;;;;4.05;2.40;;;;;;;11.40;59.74;99014.47;10304280;28;20112;-77
2022/04/05 13:08:26;;;;;;;4.28;3.13;;;;;;;10.59;63.34;99018.09;10300566;28;20046;-77
2022/04/05 13:13:39;;;;;;;4.13;2.90;;;;;;;10.44;65.39;99009.59;10302542;28;20528;-78
2022/04/05 13:18:42;;;;;;;6.30;3.00;;;;;;;10.66;64.10;99003.63;10302728;28;20058;-78
2022/04/05 13:24:20;;;;;;;6.75;3.50;;;;;;;10.42;66.12;99003.66;10306850;28;20793;-77
2022/04/05 13:29:27;;;;;;;4.72;3.53;;;;;;;10.62;64.71;99013.50;10244700;28;20054;-77
2022/04/05 13:34:41;;;;;;;6.32;3.72;;;;;;;10.85;65.50;98998.66;10304417;28;20559;-77
2022/04/05 13:39:50;;;;;;;3.70;2.90;;;;;;;11.08;64.30;99005.66;10309714;28;20153;-78
2022/04/05 13:44:52;;;;;;;4.45;3.30;;;;;;;11.15;64.15;98999.81;10299376;28;20050;-77
2022/04/05 13:49:54;;;;;;;4.90;3.30;;;;;;;10.97;64.64;98997.75;10304146;28;20046;-78
2022/04/05 13:54:56;;;;;;;4.60;3.50;;;;;;;10.99;64.97;98991.44;10304145;28;20164;-78
2022/04/05 13:59:58;;;;;;;4.22;3.42;;;;;;;11.23;64.34;98989.59;10305050;28;20093;-78
2022/04/05 14:04:59;;;;;;;5.97;3.60;;;;;;;11.24;64.03;98985.19;10306228;28;20101;-78
2022/04/05 14:10:01;;;;;;;4.57;3.70;;;;;;;11.16;64.31;98979.72;10305347;28;20059;-78
2022/04/05 14:15:03;;;;;;;5.50;3.42;;;;;;;11.20;64.22;98973.31;10309520;28;20065;-78
2022/04/05 14:20:08;;;;;;;4.85;3.00;;;;;;;11.10;64.34;98973.19;10306647;28;20112;-78
2022/04/05 14:25:14;;;;;;;3.83;3.03;;;;;;;11.05;64.42;98975.31;10305048;28;21009;-78
2022/04/05 14:30:17;;;;;;;4.53;2.80;;;;;;;11.34;63.86;98969.63;10311752;28;20060;-78
2022/04/05 14:35:22;;;;;;;3.55;2.35;;;;;;;11.48;63.42;98959.72;10311661;28;20427;-78
2022/04/05 14:40:31;;;;;;;4.70;2.92;;;;;;;11.81;62.85;98953.59;10300962;28;20169;-78
2022/04/05 14:45:35;;;;;;;4.15;2.92;;;;;;;12.00;61.96;98951.16;10317889;28;20479;-78
2022/04/05 14:50:39;;;;;;;3.80;2.72;;;;;;;12.03;62.01;98951.75;10311924;28;20141;-78
2022/04/05 14:55:50;;;;;;;3.60;2.90;;;;;;;11.94;61.95;98959.53;10312024;28;20127;-78
2022/04/05 15:00:53;;;;;;;3.75;2.72;;;;;;;11.61;62.49;98956.97;10310402;28;20057;-78
2022/04/05 15:05:55;;;;;;;5.57;3.25;;;;;;;11.35;63.13;98974.75;10311251;28;20058;-78
2022/04/05 15:17:19;;;;;;;4.50;3.72;;;;;;;11.23;63.80;98960.81;10310037;28;20042;-77
2022/04/05 15:22:21;;;;;;;6.78;5.80;;;;;;;11.23;63.92;98968.66;10308043;28;20160;-77
2022/04/05 15:27:23;;;;;;;5.22;4.05;;;;;;;10.84;64.85;98956.00;10299712;28;20149;-77
2022/04/05 15:32:29;;;;;;;5.00;4.20;;;;;;;10.82;65.30;98960.53;10304780;28;20046;-76
2022/04/05 15:37:33;;;;;;;5.38;4.10;;;;;;;10.75;65.67;98964.53;10303131;28;20151;-76
2022/04/05 15:42:34;;;;;;;4.45;3.85;;;;;;;10.62;65.84;98966.44;10301362;28;20054;-77
2022/04/05 15:47:36;;;;;;;4.72;4.10;;;;;;;10.50;66.41;98973.38;10305173;28;20086;-77
2022/04/05 15:52:39;;;;;;;4.75;3.92;;;;;;;10.47;66.77;98975.41;10311694;28;20586;-77
2022/04/05 15:57:41;;;;;;;4.88;3.92;;;;;;;10.39;66.89;98981.22;10295234;28;20416;-77
2022/04/05 16:02:43;;;;;;;5.18;4.25;;;;;;;10.21;67.67;98981.72;10304552;28;20084;-76
2022/04/05 16:07:46;;;;;;;5.00;4.05;;;;;;;10.09;67.88;98987.84;10303176;28;20064;-77
2022/04/05 16:12:48;;;;;;;5.20;4.20;;;;;;;10.16;67.72;98983.81;10289363;28;20137;-76
2022/04/05 16:17:50;;;;;;;5.85;4.05;;;;;;;10.17;67.58;98978.50;10301563;28;20144;-77
2022/04/05 16:22:52;;;;;;;5.32;4.00;;;;;;;10.20;67.59;98978.25;10309855;28;20665;-77
2022/04/05 16:27:53;;;;;;;5.15;4.00;;;;;;;10.18;67.71;98977.53;10301695;28;20058;-77
2022/04/05 16:32:55;;;;;;;4.18;3.40;;;;;;;10.25;67.27;98977.94;10303108;28;20077;-77
2022/04/05 16:37:57;;;;;;;4.13;3.33;;;;;;;10.12;67.64;98974.53;10301776;28;20143;-77
2022/04/05 16:42:59;;;;;;;4.22;3.28;;;;;;;10.20;67.03;98967.81;10289402;28;20173;-76
2022/04/05 16:48:02;;;;;;;5.53;3.83;;;;;;;10.15;67.39;98966.50;10302486;28;20058;-76
2022/04/05 16:53:04;;;;;;;5.53;4.00;;;;;;;10.06;67.75;98973.22;10312830;28;20500;-77
2022/04/05 16:58:06;;;;;;;4.70;3.70;;;;;;;9.91;68.29;98974.31;10297260;28;20181;-77
2022/04/05 17:03:09;;;;;;;5.10;3.88;;;;;;;10.00;68.05;98962.38;10303369;28;20092;-77
2022/04/05 17:08:13;;;;;;;4.28;3.38;;;;;;;10.04;67.95;98974.25;10302507;28;20519;-77
2022/04/05 17:13:15;;;;;;;5.25;4.05;;;;;;;10.01;67.92;98961.44;10293388;28;20144;-77
2022/04/05 17:18:17;;;;;;;5.20;4.00;;;;;;;9.97;67.99;98962.63;10299380;28;20439;-77
2022/04/05 17:23:39;;;;;;;11.27;8.77;;;;;;;9.95;68.22;98974.94;10289663;28;20570;-77
2022/04/05 17:28:57;;;;;;;4.78;3.83;;;;;;;10.02;68.06;98965.72;10302730;28;20046;-77
2022/04/05 17:34:00;;;;;;;4.40;3.63;;;;;;;9.97;68.28;98962.63;10304216;28;20066;-78
2022/04/05 17:39:02;;;;;;;4.30;3.40;;;;;;;9.95;68.21;98954.88;10310502;28;20145;-78
2022/04/05 17:44:05;;;;;;;5.63;3.70;;;;;;;9.88;68.82;98965.88;10302227;28;20104;-77
2022/04/05 17:49:07;;;;;;;6.82;3.92;;;;;;;9.83;68.90;98970.59;10304220;28;20054;-78
2022/04/05 17:54:09;;;;;;;5.50;4.00;;;;;;;9.90;68.76;98969.22;10303925;28;20140;-78
2022/04/05 17:59:18;;;;;;;7.38;4.00;;;;;;;9.80;69.63;98965.59;10311032;28;20177;-78
2022/04/05 18:04:20;;;;;;;5.03;3.90;;;;;;;9.85;68.88;98964.31;10309428;28;20050;-78
2022/04/05 18:09:22;;;;;;;5.50;4.03;;;;;;;9.83;69.14;98962.78;10304925;28;20089;-78
2022/04/05 18:14:24;;;;;;;7.90;4.22;;;;;;;9.85;69.05;98961.69;10311256;28;20066;-83
2022/04/05 18:19:28;;;;;;;5.05;4.07;;;;;;;9.84;68.98;98978.31;10303367;28;20042;-82
2022/04/05 18:24:30;;;;;;;4.60;3.88;;;;;;;9.82;68.99;98971.53;10317431;28;20492;-82
2022/04/05 18:29:32;;;;;;;4.82;3.80;;;;;;;9.72;69.13;98980.97;10316122;28;20714;-82
2022/04/05 18:34:36;;;;;;;5.28;3.80;;;;;;;9.65;69.37;98988.38;10314888;28;20054;-82
2022/04/05 18:39:39;;;;;;;4.35;3.35;;;;;;;9.67;69.16;98990.94;10314018;28;20412;-82
2022/04/05 18:44:41;;;;;;;5.05;3.70;;;;;;;9.55;69.50;98993.41;10314687;28;20051;-82
2022/04/05 18:49:45;;;;;;;5.38;3.50;;;;;;;9.72;68.80;98991.41;10315421;28;20108;-82
2022/04/05 18:54:48;;;;;;;4.40;3.50;;;;;;;9.65;68.87;99006.63;10309665;28;20054;-82
2022/04/05 19:00:12;;;;;;;4.82;3.72;;;;;;;9.61;69.03;98999.97;10307729;28;20085;-82
2022/04/05 19:05:14;;;;;;;5.15;3.92;;;;;;;9.61;69.00;98992.97;10311057;28;20065;-82
2022/04/05 19:10:16;;;;;;;8.68;7.55;;;;;;;9.65;68.62;98997.03;10311105;28;20520;-81
2022/04/05 19:15:19;;;;;;;5.18;3.90;;;;;;;9.69;68.70;98999.47;10318219;28;20976;-81
2022/04/05 19:20:26;;;;;;;5.40;4.20;;;;;;;9.60;68.94;98988.72;10310444;28;20156;-82
2022/04/05 19:25:31;;;;;;;5.10;4.13;;;;;;;9.49;69.11;98988.63;10315143;28;20058;-82
2022/04/05 19:30:35;;;;;;;5.20;4.35;;;;;;;9.42;69.13;98997.00;10310719;28;20090;-83
2022/04/05 19:35:38;;;;;;;6.47;5.20;;;;;;;9.38;68.91;99005.97;10312392;28;20552;-83
2022/04/05 19:40:40;;;;;;;7.35;5.72;;;;;;;9.22;69.49;99006.19;10306317;28;20046;-83
2022/04/05 19:45:41;;;;;;;10.63;8.18;;;;;;;9.22;69.55;99000.97;10315217;28;20093;-83
2022/04/05 19:50:43;;;;;;;7.78;6.03;;;;;;;9.36;69.01;99003.47;10322149;28;20038;-83
2022/04/05 19:55:45;;;;;;;8.77;5.88;;;;;;;9.36;68.96;99016.50;10315788;28;20090;-83
2022/04/05 20:00:47;;;;;;;8.88;6.70;;;;;;;9.31;69.11;99009.94;10305952;28;20043;-83
2022/04/05 20:05:49;;;;;;;8.82;6.82;;;;;;;9.37;69.00;99019.94;10306462;28;20054;-83
2022/04/05 20:10:51;;;;;;;8.30;6.78;;;;;;;9.38;68.74;99006.78;10306587;28;20508;-84
2022/04/05 20:15:53;;;;;;;8.00;6.93;;;;;;;9.30;69.16;99029.97;10312464;28;20120;-86
2022/04/05 20:20:55;;;;;;;7.82;6.82;;;;;;;9.45;69.05;99020.25;10308463;28;20085;-85
2022/04/05 20:25:57;;;;;;;12.63;9.18;;;;;;;9.58;68.42;99023.69;10311435;28;20054;-85
2022/04/05 20:30:59;;;;;;;9.80;7.80;;;;;;;9.62;68.23;99019.94;10309395;28;20054;-85
2022/04/05 20:36:01;;;;;;;10.32;6.43;;;;;;;9.56;68.44;99017.75;10311268;28;20105;-85
2022/04/05 20:41:05;;;;;;;7.88;6.35;;;;;;;9.58;68.31;99019.28;10309430;28;20946;-85
2022/04/05 20:46:07;;;;;;;7.28;6.43;;;;;;;9.61;68.31;99013.88;10312381;28;20113;-85
2022/04/05 20:51:12;;;;;;;6.97;6.05;;;;;;;9.66;68.29;99010.97;10300681;28;20455;-85
2022/04/05 20:56:14;;;;;;;7.40;6.30;;;;;;;9.65;68.52;99014.47;10310073;28;20054;-85
2022/04/05 21:01:16;;;;;;;8.52;6.20;;;;;;;9.64;68.23;98999.78;10313265;28;20124;-85
2022/04/05 21:06:18;;;;;;;6.50;5.35;;;;;;;9.58;68.16;98990.56;10293789;28;20069;-85
2022/04/05 21:11:20;;;;;;;6.55;5.50;;;;;;;9.65;67.69;99004.88;10276288;28;20105;-84
2022/04/05 21:16:21;;;;;;;6.93;4.93;;;;;;;9.68;67.77;98997.81;10274465;28;20050;-85
2022/04/05 21:21:23;;;;;;;5.38;4.72;;;;;;;9.52;68.21;99001.44;10274039;28;20508;-84
2022/04/05 21:26:25;;;;;;;5.30;4.60;;;;;;;9.63;67.95;98991.09;10276253;28;20109;-84
2022/04/05 21:31:28;;;;;;;5.20;4.45;;;;;;;9.73;67.74;98987.88;10278562;28;20046;-84
2022/04/05 21:36:30;;;;;;;6.55;4.75;;;;;;;9.65;67.84;98991.81;10301407;28;20125;-85
2022/04/05 21:41:32;;;;;;;6.88;4.90;;;;;;;9.71;67.71;98990.56;10282359;28;20078;-84
2022/04/05 21:47:05;;;;;;;6.57;5.32;;;;;;;9.72;67.49;98978.38;10278678;28;20055;-85
2022/04/05 21:52:10;;;;;;;5.95;4.90;;;;;;;9.75;67.44;98981.59;10283744;28;20058;-84
2022/04/05 21:57:13;;;;;;;6.00;5.40;;;;;;;9.80;67.17;98971.66;10281222;28;20150;-85
2022/04/05 22:02:15;;;;;;;6.63;5.30;;;;;;;9.75;67.38;98978.16;10280216;28;20062;-84
2022/04/05 22:07:18;;;;;;;6.93;5.45;;;;;;;9.76;66.99;98969.38;10311521;28;20065;-85
2022/04/05 22:12:20;;;;;;;6.10;5.32;;;;;;;9.75;67.25;98965.91;10317879;28;20078;-85
2022/04/05 22:17:23;;;;;;;7.47;6.05;;;;;;;9.67;67.25;98954.38;10319864;28;20061;-84
2022/04/05 22:22:25;;;;;;;6.90;5.80;;;;;;;9.92;66.51;98955.09;10317635;28;20050;-85
2022/04/05 22:27:27;;;;;;;7.10;6.05;;;;;;;9.80;66.59;98958.59;10323908;28;20050;-85
2022/04/05 22:32:28;;;;;;;6.90;5.50;;;;;;;9.85;66.39;98966.13;10318491;28;20607;-85
2022/04/05 22:37:30;;;;;;;6.68;5.35;;;;;;;9.81;66.12;98968.09;10318155;28;20054;-85
2022/04/05 22:42:32;;;;;;;7.57;5.95;;;;;;;9.92;66.00;98964.72;10313201;28;20109;-85
2022/04/05 22:47:34;;;;;;;7.85;5.32;;;;;;;9.90;65.66;98961.38;10314171;28;20176;-84
2022/04/05 22:52:38;;;;;;;7.68;5.57;;;;;;;10.00;65.38;98967.59;10315948;28;20488;-84
2022/04/05 22:57:40;;;;;;;7.30;5.75;;;;;;;9.92;65.62;98967.31;10319717;28;20089;-84
2022/04/05 23:02:41;;;;;;;7.25;5.22;;;;;;;9.88;65.50;98971.94;10326843;28;20050;-85
2022/04/05 23:07:43;;;;;;;7.68;5.60;;;;;;;9.89;65.27;98965.75;10317057;28;20068;-85
2022/04/05 23:12:45;;;;;;;10.20;5.63;;;;;;;9.89;65.05;98968.38;10323004;28;20042;-85
2022/04/05 23:17:47;;;;;;;9.05;6.05;;;;;;;9.91;64.94;98963.06;10316676;28;20054;-85
2022/04/05 23:22:49;;;;;;;9.15;6.53;;;;;;;9.91;64.98;98952.59;10307399;28;20124;-85
2022/04/05 23:27:50;;;;;;;9.52;6.50;;;;;;;9.80;65.06;98955.16;10316875;28;20105;-84
2022/04/05 23:32:52;;;;;;;7.75;6.35;;;;;;;9.79;65.08;98948.28;10307253;28;20050;-85
2022/04/05 23:37:54;;;;;;;10.75;6.18;;;;;;;9.83;64.80;98947.09;10316699;28;20054;-84
2022/04/05 23:42:56;;;;;;;8.90;6.28;;;;;;;9.81;64.51;98944.59;10316329;28;20511;-85
2022/04/05 23:48:01;;;;;;;9.35;6.60;;;;;;;9.57;65.10;98941.94;10317018;28;20116;-85
2022/04/05 23:53:03;;;;;;;9.80;6.60;;;;;;;9.60;64.71;98939.13;10311794;28;20554;-85
2022/04/05 23:58:05;;;;;;;9.38;6.75;;;;;;;9.58;64.58;98945.38;10322625;28;20090;-84
